createdAt,value
2022-11-08T00:01:20.138Z,10.85
2022-11-08T00:04:13.625Z,8.60
2022-11-08T00:07:22.850Z,7.28
2022-11-08T00:10:31.800Z,7.75
2022-11-08T00:13:40.638Z,7.12
2022-11-08T00:16:32.009Z,7.12
2022-11-08T00:19:23.390Z,7.67
2022-11-08T00:22:15.468Z,7.40
2022-11-08T00:25:08.117Z,9.10
2022-11-08T00:28:00.248Z,7.00
2022-11-08T00:30:51.640Z,9.15
2022-11-08T00:33:42.902Z,6.00
2022-11-08T00:36:34.141Z,7.28
2022-11-08T00:42:06.142Z,7.90
2022-11-08T00:50:21.541Z,9.78
2022-11-08T00:53:12.661Z,7.83
2022-11-08T00:56:05.772Z,6.50
2022-11-08T00:58:56.974Z,8.43
2022-11-08T01:01:49.590Z,8.08
2022-11-08T01:04:40.890Z,7.60
2022-11-08T01:10:54.817Z,8.93
2022-11-08T01:16:28.305Z,8.95
2022-11-08T01:19:19.931Z,7.58
2022-11-08T01:22:11.362Z,7.92
2022-11-08T01:25:07.106Z,7.67
2022-11-08T01:27:58.705Z,9.05
2022-11-08T01:30:49.918Z,6.15
2022-11-08T01:33:42.969Z,7.42
2022-11-08T01:36:34.578Z,8.30
2022-11-08T01:39:25.990Z,7.00
2022-11-08T01:42:18.427Z,7.62
2022-11-08T01:45:12.744Z,8.73
2022-11-08T01:50:43.108Z,8.25
2022-11-08T01:53:34.166Z,7.03
2022-11-08T01:56:25.324Z,8.68
2022-11-08T02:02:01.337Z,7.85
2022-11-08T02:07:33.509Z,8.10
2022-11-08T02:10:28.773Z,7.33
2022-11-08T02:13:22.709Z,8.60
2022-11-08T02:16:15.736Z,7.87
2022-11-08T02:19:08.834Z,6.70
2022-11-08T02:22:03.161Z,6.20
2022-11-08T02:24:55.175Z,7.05
2022-11-08T02:27:46.263Z,7.20
2022-11-08T02:30:38.798Z,6.62
2022-11-08T02:36:10.633Z,7.70
2022-11-08T02:39:01.834Z,6.42
2022-11-08T02:41:53.272Z,6.90
2022-11-08T02:44:44.644Z,7.58
2022-11-08T02:47:36.081Z,10.15
2022-11-08T02:50:27.111Z,8.93
2022-11-08T02:53:18.561Z,7.08
2022-11-08T02:56:10.351Z,6.67
2022-11-08T03:01:40.945Z,7.45
2022-11-08T03:04:33.869Z,9.18
2022-11-08T03:07:25.212Z,8.18
2022-11-08T03:10:16.970Z,7.72
2022-11-08T03:15:47.778Z,8.38
2022-11-08T03:21:20.705Z,6.90
2022-11-08T03:24:13.617Z,6.35
2022-11-08T03:27:05.173Z,7.67
2022-11-08T03:29:56.318Z,9.60
2022-11-08T03:32:47.859Z,9.30
2022-11-08T03:35:39.192Z,8.53
2022-11-08T03:38:30.500Z,7.37
2022-11-08T03:41:22.080Z,8.80
2022-11-08T03:44:13.703Z,6.67
2022-11-08T03:47:07.559Z,8.33
2022-11-08T03:52:43.607Z,8.43
2022-11-08T03:55:34.847Z,8.50
2022-11-08T03:58:26.234Z,7.42
2022-11-08T04:01:17.557Z,7.08
2022-11-08T04:04:09.664Z,6.47
2022-11-08T04:07:00.756Z,7.60
2022-11-08T04:09:52.219Z,8.18
2022-11-08T04:15:23.865Z,7.58
2022-11-08T04:21:22.037Z,7.50
2022-11-08T04:24:13.388Z,9.48
2022-11-08T04:27:05.044Z,9.00
2022-11-08T04:29:57.752Z,7.33
2022-11-08T04:35:32.096Z,8.75
2022-11-08T04:38:23.555Z,7.05
2022-11-08T04:41:18.465Z,7.53
2022-11-08T04:44:10.540Z,7.45
2022-11-08T04:47:01.761Z,8.80
2022-11-08T04:52:36.623Z,6.22
2022-11-08T04:55:27.975Z,6.30
2022-11-08T04:58:19.716Z,9.70
2022-11-08T05:01:12.575Z,9.35
2022-11-08T05:04:03.845Z,7.65
2022-11-08T05:06:55.501Z,9.23
2022-11-08T05:09:46.804Z,7.25
2022-11-08T05:12:38.218Z,8.73
2022-11-08T05:15:29.803Z,5.92
2022-11-08T05:18:21.290Z,6.28
2022-11-08T05:21:31.692Z,6.85
2022-11-08T05:24:22.895Z,6.12
2022-11-08T05:27:14.423Z,5.03
2022-11-08T05:30:07.529Z,6.05
2022-11-08T05:35:49.267Z,5.70
2022-11-08T05:38:41.772Z,7.80
2022-11-08T05:41:33.027Z,7.20
2022-11-08T05:44:24.308Z,6.08
2022-11-08T05:47:15.802Z,6.42
2022-11-08T05:52:49.297Z,6.00
2022-11-08T05:55:41.979Z,5.92
2022-11-08T05:58:35.729Z,6.62
2022-11-08T06:01:38.390Z,6.45
2022-11-08T06:04:29.478Z,8.70
2022-11-08T06:07:20.886Z,9.08
2022-11-08T06:10:12.894Z,5.78
2022-11-08T06:13:04.272Z,9.65
2022-11-08T06:15:55.513Z,8.15
2022-11-08T06:21:32.685Z,7.03
2022-11-08T06:24:24.343Z,6.72
2022-11-08T06:27:19.504Z,6.72
2022-11-08T06:30:13.490Z,6.40
2022-11-08T06:33:04.764Z,7.15
2022-11-08T06:35:56.860Z,6.67
2022-11-08T06:41:31.040Z,7.33
2022-11-08T06:44:22.325Z,6.55
2022-11-08T06:47:15.322Z,6.62
2022-11-08T06:50:09.018Z,6.20
2022-11-08T06:55:40.919Z,7.33
2022-11-08T07:01:16.417Z,8.03
2022-11-08T07:04:08.497Z,8.08
2022-11-08T07:07:01.184Z,6.12
2022-11-08T07:12:42.886Z,7.55
2022-11-08T07:15:38.163Z,8.08
2022-11-08T07:18:29.891Z,6.22
2022-11-08T07:21:21.904Z,6.28
2022-11-08T07:24:13.877Z,7.25
2022-11-08T07:27:05.821Z,6.92
2022-11-08T07:29:57.355Z,7.22
2022-11-08T07:35:34.809Z,6.85
2022-11-08T07:38:29.861Z,5.70
2022-11-08T07:41:23.401Z,7.05
2022-11-08T07:44:14.767Z,8.18
2022-11-08T07:47:06.288Z,9.23
2022-11-08T07:49:57.755Z,5.85
2022-11-08T07:52:52.799Z,7.15
2022-11-08T07:55:44.276Z,9.58
2022-11-08T07:58:37.738Z,6.87
2022-11-08T08:01:29.364Z,6.30
2022-11-08T08:04:20.897Z,6.75
2022-11-08T08:07:12.542Z,13.22
2022-11-08T08:10:04.162Z,7.15
2022-11-08T08:12:57.407Z,6.33
2022-11-08T08:18:30.354Z,7.20
2022-11-08T08:21:21.573Z,6.42
2022-11-08T08:27:30.073Z,7.33
2022-11-08T08:30:23.028Z,5.17
2022-11-08T08:33:32.172Z,8.30
2022-11-08T08:36:11.034Z,6.53
2022-11-08T08:39:02.422Z,5.75
2022-11-08T08:41:53.978Z,4.62
2022-11-08T08:44:45.436Z,9.05
2022-11-08T08:47:36.900Z,10.85
2022-11-08T08:50:30.715Z,6.92
2022-11-08T08:53:22.339Z,5.92
2022-11-08T08:56:13.928Z,6.87
2022-11-08T09:02:20.485Z,6.08
2022-11-08T09:05:12.937Z,6.17
2022-11-08T09:08:04.694Z,8.40
2022-11-08T09:10:57.235Z,6.95
2022-11-08T22:26:29.412Z,4.22
2022-11-08T22:29:23.064Z,4.97
2022-11-08T22:32:14.378Z,3.45
2022-11-08T22:35:07.121Z,4.28
2022-11-08T22:37:59.711Z,3.83
2022-11-08T22:40:50.692Z,3.75
2022-11-08T22:43:42.459Z,3.33
2022-11-08T22:46:33.689Z,2.02
2022-11-08T22:49:25.156Z,2.15
2022-11-08T22:52:16.481Z,2.67
2022-11-08T22:55:11.135Z,4.25
2022-11-08T22:58:04.180Z,2.58
2022-11-08T23:00:56.097Z,2.65
2022-11-08T23:03:48.870Z,2.77
2022-11-08T23:06:40.774Z,2.85
2022-11-08T23:09:32.257Z,2.45
2022-11-08T23:12:41.559Z,2.55
2022-11-08T23:15:52.201Z,4.70
2022-11-08T23:18:44.949Z,3.17
2022-11-08T23:22:04.106Z,2.85
2022-11-08T23:24:55.464Z,2.40
2022-11-08T23:28:04.671Z,3.02
2022-11-08T23:31:13.449Z,2.80
2022-11-08T23:34:07.128Z,1.72
2022-11-08T23:36:58.512Z,2.62
2022-11-08T23:42:51.874Z,2.00
2022-11-08T23:45:43.523Z,2.17
2022-11-08T23:48:36.016Z,2.17
2022-11-08T23:51:27.474Z,1.72
2022-11-08T23:59:52.421Z,2.37
